createdAt,value
2017-01-10T00:00:03.163Z,3.2
2017-01-10T00:05:03.002Z,3.0
2017-01-10T00:10:02.807Z,3.0
2017-01-10T00:15:02.676Z,3.0
2017-01-10T00:20:03.315Z,3.0
2017-01-10T00:25:03.296Z,3.2
2017-01-10T00:30:03.032Z,3.2
2017-01-10T00:35:02.852Z,3.2
2017-01-10T00:40:02.874Z,3.2
2017-01-10T00:45:02.737Z,3.0
2017-01-10T00:50:02.671Z,3.2
2017-01-10T00:55:02.518Z,3.2
2017-01-10T01:00:02.502Z,3.2
2017-01-10T01:05:03.201Z,3.2
2017-01-10T01:10:03.132Z,3.2
2017-01-10T01:15:02.994Z,3.2
2017-01-10T01:20:03.044Z,3.2
2017-01-10T01:25:02.871Z,3.2
2017-01-10T01:30:02.794Z,3.2
2017-01-10T01:35:02.601Z,3.2
2017-01-10T01:40:02.635Z,3.2
2017-01-10T01:45:02.418Z,3.2
2017-01-10T01:50:03.219Z,3.2
2017-01-10T01:55:02.981Z,3.2
2017-01-10T02:00:02.458Z,3.2
2017-01-10T02:05:03.236Z,3.2
2017-01-10T02:10:02.981Z,3.2
2017-01-10T02:15:02.956Z,3.2
2017-01-10T02:20:02.905Z,3.2
2017-01-10T02:25:02.603Z,3.2
2017-01-10T02:30:02.533Z,3.2
2017-01-10T02:35:03.418Z,3.2
2017-01-10T02:40:03.428Z,3.2
2017-01-10T02:45:03.298Z,3.2
2017-01-10T02:50:03.257Z,3.2
2017-01-10T02:55:03.099Z,3.2
2017-01-10T03:00:02.820Z,3.2
2017-01-10T03:05:02.672Z,3.2
2017-01-10T03:10:03.264Z,3.0
2017-01-10T03:15:03.256Z,3.0
2017-01-10T03:20:03.110Z,3.0
2017-01-10T03:25:03.143Z,3.0
2017-01-10T03:30:03.125Z,3.0
2017-01-10T03:35:02.998Z,3.0
2017-01-10T03:40:02.996Z,3.0
2017-01-10T03:45:02.540Z,3.0
2017-01-10T03:50:03.444Z,2.9
2017-01-10T03:55:03.353Z,3.0
2017-01-10T04:00:03.126Z,2.9
2017-01-10T04:05:02.705Z,3.0
2017-01-10T04:10:03.322Z,2.9
2017-01-10T04:15:03.252Z,3.0
2017-01-10T04:20:03.008Z,3.0
2017-01-10T04:25:02.586Z,3.0
2017-01-10T04:30:03.382Z,3.0
2017-01-10T04:35:03.066Z,3.0
2017-01-10T04:40:02.992Z,3.0
2017-01-10T04:45:02.825Z,3.0
2017-01-10T04:50:02.746Z,3.0
2017-01-10T04:55:02.657Z,3.2
2017-01-10T05:00:02.505Z,3.2
2017-01-10T05:05:03.461Z,3.2
2017-01-10T05:10:03.037Z,3.2
2017-01-10T05:15:02.840Z,3.2
2017-01-10T05:20:02.641Z,3.2
2017-01-10T05:25:02.471Z,3.2
2017-01-10T05:30:02.992Z,3.5
2017-01-10T05:35:02.832Z,3.5
2017-01-10T05:40:02.608Z,3.7
2017-01-10T05:45:02.766Z,3.7
2017-01-10T05:50:03.300Z,4.0
2017-01-10T05:55:03.183Z,4.0
2017-01-10T06:00:03.013Z,4.0
2017-01-10T06:05:02.714Z,4.0
2017-01-10T06:10:02.622Z,4.0
2017-01-10T06:15:02.436Z,4.0
2017-01-10T06:20:03.253Z,4.0
2017-01-10T06:25:03.121Z,4.0
2017-01-10T06:30:02.989Z,4.0
2017-01-10T06:35:02.559Z,4.0
2017-01-10T06:40:02.578Z,4.0
2017-01-10T06:45:03.221Z,4.0
2017-01-10T06:50:02.769Z,4.0
2017-01-10T06:55:02.557Z,4.0
2017-01-10T07:00:03.375Z,3.7
2017-01-10T07:05:03.273Z,3.7
2017-01-10T07:10:03.180Z,3.7
2017-01-10T07:15:03.015Z,3.7
2017-01-10T07:20:02.947Z,3.7
2017-01-10T07:25:02.737Z,3.7
2017-01-10T07:30:02.625Z,3.5
2017-01-10T07:35:03.402Z,3.5
2017-01-10T07:40:03.272Z,3.5
2017-01-10T07:45:03.193Z,3.7
2017-01-10T07:50:02.843Z,3.7
2017-01-10T07:55:02.448Z,3.5
2017-01-10T08:00:03.230Z,3.2
2017-01-10T08:05:03.009Z,3.2
2017-01-10T08:10:02.638Z,3.2
2017-01-10T08:15:02.454Z,3.2
2017-01-10T08:20:03.248Z,3.0
2017-01-10T08:25:02.927Z,2.9
2017-01-10T08:30:02.585Z,2.9
2017-01-10T08:35:03.224Z,2.9
2017-01-10T08:40:02.830Z,2.7
2017-01-10T08:45:03.394Z,2.9
2017-01-10T08:50:03.247Z,3.0
2017-01-10T08:55:03.019Z,3.2
2017-01-10T09:00:02.942Z,3.5
2017-01-10T09:05:02.783Z,3.7
2017-01-10T09:10:02.375Z,3.7
2017-01-10T09:15:02.926Z,3.7
2017-01-10T09:20:02.488Z,3.5
2017-01-10T09:25:03.344Z,3.5
2017-01-10T09:30:03.084Z,3.5
2017-01-10T09:35:02.778Z,3.2
2017-01-10T09:40:02.629Z,3.5
2017-01-10T09:45:02.457Z,3.2
2017-01-10T09:50:03.238Z,4.5
2017-01-10T09:55:03.016Z,4.5
2017-01-10T10:00:02.644Z,4.3
2017-01-10T10:05:02.539Z,3.7
2017-01-10T10:10:02.527Z,4.0
2017-01-10T10:15:03.239Z,5.0
2017-01-10T10:20:03.252Z,5.0
2017-01-10T10:25:02.423Z,4.5
2017-01-10T10:30:02.393Z,4.0
2017-01-10T10:35:02.573Z,4.0
2017-01-10T10:40:03.156Z,4.3
2017-01-10T10:45:03.241Z,3.7
2017-01-10T10:50:02.500Z,4.3
2017-01-10T10:55:04.495Z,5.0
2017-01-10T11:00:02.830Z,4.8
2017-01-10T11:05:02.692Z,5.0
2017-01-10T11:10:02.696Z,4.8
2017-01-10T11:15:03.247Z,5.3
2017-01-10T11:20:03.137Z,5.0
2017-01-10T11:25:02.872Z,5.3
2017-01-10T11:30:02.417Z,4.8
2017-01-10T11:35:03.011Z,4.8
2017-01-10T11:40:02.458Z,4.5
2017-01-10T11:45:02.609Z,4.5
2017-01-10T11:50:02.807Z,4.5
2017-01-10T11:55:03.087Z,4.5
2017-01-10T12:00:02.862Z,4.5
2017-01-10T12:05:02.867Z,5.0
2017-01-10T12:10:02.445Z,5.0
2017-01-10T12:15:03.034Z,5.4
2017-01-10T12:20:02.747Z,5.0
2017-01-10T12:25:02.750Z,5.3
2017-01-10T12:30:03.282Z,5.0
2017-01-10T12:35:02.989Z,5.0
2017-01-10T12:40:02.721Z,5.0
2017-01-10T12:45:03.085Z,5.0
2017-01-10T12:50:02.825Z,5.3
2017-01-10T12:55:02.658Z,5.3
2017-01-10T13:00:03.136Z,5.4
2017-01-10T13:05:02.901Z,5.4
2017-01-10T13:10:02.553Z,5.4
2017-01-10T13:15:02.957Z,5.8
2017-01-10T13:20:03.030Z,5.5
2017-01-10T13:25:03.354Z,5.5
2017-01-10T13:30:02.749Z,5.5
2017-01-10T13:35:03.350Z,5.8
2017-01-10T13:40:02.883Z,5.4
2017-01-10T13:45:03.345Z,5.4
2017-01-10T13:50:03.061Z,5.4
2017-01-10T13:55:02.530Z,5.4
2017-01-10T14:00:03.207Z,5.5
2017-01-10T14:05:02.801Z,5.9
2017-01-10T14:10:03.260Z,5.9
2017-01-10T14:15:02.715Z,5.5
2017-01-10T14:20:03.223Z,5.8
2017-01-10T14:25:03.099Z,5.9
2017-01-10T14:30:02.679Z,5.5
2017-01-10T14:35:02.992Z,5.5
2017-01-10T14:40:03.374Z,5.4
2017-01-10T14:45:02.925Z,5.4
2017-01-10T14:50:02.603Z,5.4
2017-01-10T14:55:03.156Z,5.3
2017-01-10T15:00:02.545Z,5.3
2017-01-10T15:05:02.828Z,5.3
2017-01-10T15:10:02.562Z,5.0
2017-01-10T15:15:03.206Z,5.0
2017-01-10T15:20:02.892Z,5.0
2017-01-10T15:25:02.471Z,5.0
2017-01-10T15:30:03.099Z,5.0
2017-01-10T15:35:02.719Z,5.0
2017-01-10T15:40:02.471Z,5.0
2017-01-10T15:45:03.151Z,5.0
2017-01-10T15:50:02.776Z,5.0
2017-01-10T15:55:03.282Z,5.0
2017-01-10T16:00:03.087Z,5.0
2017-01-10T16:05:02.708Z,5.0
2017-01-10T16:10:02.420Z,5.0
2017-01-10T16:15:02.768Z,5.0
2017-01-10T16:20:03.185Z,5.0
2017-01-10T16:25:02.754Z,4.8
2017-01-10T16:30:02.499Z,4.8
2017-01-10T16:35:02.654Z,4.8
2017-01-10T16:40:02.563Z,4.8
2017-01-10T16:45:03.120Z,4.8
2017-01-10T16:50:03.276Z,4.5
2017-01-10T16:55:02.778Z,4.5
2017-01-10T17:00:03.434Z,4.5
2017-01-10T17:05:03.165Z,4.5
2017-01-10T17:10:02.731Z,4.5
2017-01-10T17:15:03.066Z,4.5
2017-01-10T17:20:02.583Z,4.5
2017-01-10T17:25:03.011Z,4.3
2017-01-10T17:30:02.443Z,4.3
2017-01-10T17:35:03.153Z,4.3
2017-01-10T17:40:02.760Z,4.3
2017-01-10T17:45:03.295Z,4.0
2017-01-10T17:50:02.495Z,4.0
2017-01-10T17:55:03.072Z,4.0
2017-01-10T18:00:02.559Z,3.7
2017-01-10T18:05:03.064Z,3.7
2017-01-10T18:10:02.699Z,3.7
2017-01-10T18:15:02.986Z,3.7
2017-01-10T18:20:03.377Z,3.7
2017-01-10T18:25:02.879Z,3.7
2017-01-10T18:30:03.218Z,3.7
2017-01-10T18:35:03.376Z,3.7
2017-01-10T18:40:03.133Z,3.7
2017-01-10T18:45:02.595Z,3.7
2017-01-10T18:50:03.216Z,4.0
2017-01-10T18:55:03.193Z,4.0
2017-01-10T19:00:03.063Z,4.3
2017-01-10T19:05:03.153Z,4.3
2017-01-10T19:10:02.855Z,4.3
2017-01-10T19:15:02.511Z,4.3
2017-01-10T19:20:02.832Z,4.3
2017-01-10T19:25:02.934Z,4.5
2017-01-10T19:30:03.266Z,4.5
2017-01-10T19:35:03.269Z,4.5
2017-01-10T19:40:03.399Z,4.5
2017-01-10T19:45:03.069Z,4.3
2017-01-10T19:50:02.490Z,4.5
2017-01-10T19:55:03.181Z,4.5
2017-01-10T20:00:03.344Z,4.3
2017-01-10T20:05:02.528Z,4.3
2017-01-10T20:10:03.557Z,4.5
2017-01-10T20:15:02.955Z,4.5
2017-01-10T20:20:02.422Z,4.5
2017-01-10T20:25:03.399Z,4.5
2017-01-10T20:30:03.385Z,4.5
2017-01-10T20:35:03.232Z,4.5
2017-01-10T20:40:02.907Z,4.5
2017-01-10T20:45:02.751Z,4.5
2017-01-10T20:50:02.539Z,4.8
2017-01-10T20:55:02.495Z,4.5
2017-01-10T21:00:03.220Z,4.8
2017-01-10T21:05:03.170Z,4.8
2017-01-10T21:10:03.262Z,4.5
2017-01-10T21:15:03.139Z,4.8
2017-01-10T21:20:02.700Z,4.8
2017-01-10T21:25:02.634Z,4.8
2017-01-10T21:30:02.431Z,4.8
2017-01-10T21:35:03.260Z,4.5
2017-01-10T21:40:03.000Z,4.8
2017-01-10T21:45:02.915Z,4.5
2017-01-10T21:50:02.574Z,4.5
2017-01-10T21:55:03.263Z,4.5
2017-01-10T22:00:02.962Z,4.8
2017-01-10T22:05:02.726Z,4.5
2017-01-10T22:10:03.279Z,4.5
2017-01-10T22:15:03.028Z,4.5
2017-01-10T22:20:02.594Z,4.5
2017-01-10T22:25:02.429Z,4.8
2017-01-10T22:30:03.084Z,4.5
2017-01-10T22:35:02.815Z,4.5
2017-01-10T22:40:02.551Z,4.5
2017-01-10T22:45:03.425Z,4.5
2017-01-10T22:50:03.094Z,4.5
2017-01-10T22:55:02.655Z,4.5
2017-01-10T23:00:02.408Z,4.5
2017-01-10T23:05:03.159Z,4.5
2017-01-10T23:10:03.118Z,4.8
2017-01-10T23:15:02.904Z,4.5
2017-01-10T23:20:02.678Z,4.5
2017-01-10T23:25:02.392Z,4.5
2017-01-10T23:30:03.112Z,4.5
2017-01-10T23:35:02.923Z,4.5
2017-01-10T23:40:02.472Z,4.5
2017-01-10T23:45:03.215Z,4.5
2017-01-10T23:50:02.770Z,4.5
2017-01-10T23:55:02.439Z,4.5
